Time;durP1;ratioP1;P1;durP2;ratioP2;P2;SDS_P1;SDS_P2;PMS_P1;PMS_P2;Temp;Humidity;BMP_temperature;BMP_pressure;BME280_temperature;BME280_humidity;BME280_pressure;Samples;Min_cycle;Max_cycle;Signal;HPM_P1;HPM_P2
2022/11/04 00:01:44;;;;;;;4.80;3.38;;;10.10;99.90;;;;;;5024172;28;20026;-51
2022/11/04 00:04:11;;;;;;;7.07;3.15;;;10.10;99.90;;;;;;5018307;28;20032;-57
2022/11/04 00:06:38;;;;;;;5.78;3.30;;;10.10;99.90;;;;;;5013805;28;20061;-52
2022/11/04 00:09:05;;;;;;;5.90;3.25;;;10.10;99.90;;;;;;5018196;28;20030;-55
2022/11/04 00:14:15;;;;;;;4.85;2.88;;;10.10;99.90;;;;;;5012476;28;20082;-55
2022/11/04 00:19:26;;;;;;;5.75;3.45;;;10.10;99.90;;;;;;5006571;28;20114;-54
2022/11/04 00:30:11;;;;;;;5.28;3.33;;;10.00;99.90;;;;;;4958891;28;20057;-54
2022/11/04 00:35:21;;;;;;;6.30;2.92;;;10.00;99.90;;;;;;5016225;28;20400;-53
2022/11/04 00:37:47;;;;;;;8.18;3.50;;;10.00;99.90;;;;;;5009411;28;20045;-55
2022/11/04 00:40:15;;;;;;;5.07;3.08;;;10.00;99.90;;;;;;5018542;28;20022;-55
2022/11/04 00:42:44;;;;;;;4.95;3.33;;;10.00;99.90;;;;;;5017329;28;20289;-53
2022/11/04 00:45:10;;;;;;;5.60;3.10;;;10.00;99.90;;;;;;5019654;28;20026;-52
2022/11/04 00:47:35;;;;;;;7.43;3.40;;;10.00;99.90;;;;;;5016222;28;20034;-56
2022/11/04 00:50:01;;;;;;;6.28;3.10;;;10.00;99.90;;;;;;5018189;28;20109;-52
2022/11/04 00:52:26;;;;;;;5.25;3.92;;;10.00;99.90;;;;;;5035355;28;20256;-53
2022/11/04 00:54:52;;;;;;;8.25;3.10;;;10.00;99.90;;;;;;5021114;28;20029;-51
2022/11/04 00:57:17;;;;;;;9.80;4.03;;;10.00;99.90;;;;;;5026962;28;20036;-54
2022/11/04 00:59:44;;;;;;;4.43;3.00;;;10.00;99.90;;;;;;5020526;28;20026;-51
2022/11/04 01:02:10;;;;;;;6.22;3.58;;;10.00;99.90;;;;;;5028170;28;20033;-52
2022/11/04 01:04:36;;;;;;;7.88;3.47;;;10.00;99.90;;;;;;5020025;28;20110;-54
2022/11/04 01:07:02;;;;;;;4.85;3.30;;;10.00;99.90;;;;;;5021852;28;20113;-56
2022/11/04 01:09:27;;;;;;;6.38;3.80;;;10.00;99.90;;;;;;5023593;28;20033;-56
2022/11/04 01:11:53;;;;;;;4.07;3.10;;;10.00;99.90;;;;;;5022895;28;20064;-55
2022/11/04 01:14:19;;;;;;;4.45;2.97;;;10.00;99.90;;;;;;5019969;28;20033;-53
2022/11/04 01:16:45;;;;;;;3.95;3.60;;;10.00;99.90;;;;;;5013647;28;20033;-53
2022/11/04 01:19:11;;;;;;;4.15;3.13;;;10.00;99.90;;;;;;5017760;28;20519;-55
2022/11/04 01:21:37;;;;;;;6.22;3.47;;;10.00;99.90;;;;;;5021974;28;20037;-54
2022/11/04 01:24:02;;;;;;;5.40;3.35;;;10.00;99.90;;;;;;5017308;28;20034;-61
2022/11/04 01:26:29;;;;;;;4.85;3.00;;;10.00;99.90;;;;;;5019113;28;20025;-56
2022/11/04 01:28:56;;;;;;;6.75;3.67;;;10.00;99.90;;;;;;5022415;28;20097;-55
2022/11/04 01:31:24;;;;;;;8.65;4.40;;;10.00;99.90;;;;;;5020806;28;20363;-52
2022/11/04 01:33:52;;;;;;;8.52;4.88;;;10.00;99.90;;;;;;5013596;28;20105;-51
2022/11/04 01:36:18;;;;;;;5.53;3.53;;;10.00;99.90;;;;;;5023450;28;20407;-53
2022/11/04 01:38:44;;;;;;;5.57;3.78;;;10.00;99.90;;;;;;5017739;28;20029;-56
2022/11/04 01:41:20;;;;;;;5.47;3.50;;;10.00;99.90;;;;;;5021706;28;20080;-52
2022/11/04 01:43:54;;;;;;;7.60;4.03;;;10.00;99.90;;;;;;5017541;28;20522;-59
2022/11/04 01:46:38;;;;;;;4.88;3.30;;;10.00;99.90;;;;;;5019036;28;20129;-57
2022/11/04 01:49:32;;;;;;;4.30;2.88;;;10.00;99.90;;;;;;5012599;28;20041;-55
2022/11/04 01:52:04;;;;;;;5.05;3.42;;;10.00;99.90;;;;;;5012001;28;20367;-52
2022/11/04 01:54:30;;;;;;;5.00;3.35;;;10.00;99.90;;;;;;5019020;28;20022;-56
2022/11/04 01:56:59;;;;;;;6.38;3.33;;;10.00;99.90;;;;;;5018199;28;20084;-55
2022/11/04 01:59:28;;;;;;;4.32;3.30;;;10.00;99.90;;;;;;5019540;28;20264;-57
2022/11/04 02:01:54;;;;;;;7.07;3.13;;;10.10;99.90;;;;;;5014337;28;20033;-51
2022/11/04 02:04:26;;;;;;;4.00;3.53;;;10.10;99.90;;;;;;5023349;28;20082;-53
2022/11/04 02:06:54;;;;;;;6.78;3.53;;;10.10;99.90;;;;;;5033037;28;20022;-56
2022/11/04 02:09:22;;;;;;;5.00;3.72;;;10.10;99.90;;;;;;5026829;28;20020;-58
2022/11/04 02:14:33;;;;;;;4.10;3.70;;;10.10;99.90;;;;;;5016499;28;20040;-55
2022/11/04 02:17:10;;;;;;;6.75;4.10;;;10.20;99.90;;;;;;5020757;28;20026;-53
2022/11/04 02:20:10;;;;;;;4.65;3.65;;;10.10;99.90;;;;;;5016017;28;20061;-54
2022/11/04 02:23:02;;;;;;;7.82;4.32;;;10.20;99.90;;;;;;5015076;28;20104;-57
2022/11/04 02:25:43;;;;;;;6.78;3.85;;;10.20;99.90;;;;;;5017557;28;20030;-54
2022/11/04 02:28:32;;;;;;;6.90;3.90;;;10.20;99.90;;;;;;5023155;28;20040;-53
2022/11/04 02:31:33;;;;;;;5.95;4.07;;;10.20;99.90;;;;;;5017738;28;20538;-54
2022/11/04 02:34:22;;;;;;;7.68;4.35;;;10.20;99.90;;;;;;5014441;28;20038;-56
2022/11/04 02:36:51;;;;;;;7.90;4.57;;;10.20;99.90;;;;;;5008971;28;20265;-54
2022/11/04 02:39:41;;;;;;;5.38;3.92;;;10.20;99.90;;;;;;5010256;28;20021;-54
2022/11/04 02:42:21;;;;;;;5.28;3.92;;;10.20;99.90;;;;;;5020423;28;20447;-54
2022/11/04 02:45:14;;;;;;;6.40;3.88;;;10.20;99.90;;;;;;5021688;28;20026;-55
2022/11/04 02:47:47;;;;;;;7.22;4.10;;;10.20;99.90;;;;;;5017352;28;20025;-53
2022/11/04 02:50:29;;;;;;;5.30;3.78;;;10.20;99.90;;;;;;5021830;28;20546;-54
2022/11/04 02:53:09;;;;;;;4.53;4.00;;;10.10;99.90;;;;;;5012646;28;20022;-53
2022/11/04 02:55:39;;;;;;;7.25;4.38;;;10.10;99.90;;;;;;5020408;28;20029;-51
2022/11/04 02:58:09;;;;;;;5.43;3.90;;;10.10;99.90;;;;;;5019698;28;20281;-51
2022/11/04 03:00:40;;;;;;;7.20;4.15;;;10.10;99.90;;;;;;5016360;28;20033;-56
2022/11/04 03:03:21;;;;;;;5.32;4.10;;;10.10;99.90;;;;;;5033930;28;20590;-54
2022/11/04 03:05:49;;;;;;;7.75;4.07;;;10.10;99.90;;;;;;5011902;28;20033;-54
2022/11/04 03:08:28;;;;;;;7.68;5.13;;;10.10;99.90;;;;;;5011858;28;20021;-52
2022/11/04 03:11:00;;;;;;;4.35;3.90;;;10.10;99.90;;;;;;5019613;28;20376;-53
2022/11/04 03:13:31;;;;;;;7.32;4.47;;;10.10;99.90;;;;;;5018922;28;20030;-56
2022/11/04 03:16:02;;;;;;;7.32;4.40;;;10.10;99.90;;;;;;5020454;28;20025;-57
2022/11/04 03:18:52;;;;;;;7.07;4.03;;;10.00;99.90;;;;;;5018276;28;20041;-59
2022/11/04 03:21:19;;;;;;;5.25;4.05;;;10.00;99.90;;;;;;5014361;28;20029;-58
2022/11/04 03:23:44;;;;;;;5.05;4.00;;;10.00;99.90;;;;;;5018083;28;20030;-55
2022/11/04 03:26:16;;;;;;;4.80;3.78;;;10.00;99.90;;;;;;5022287;28;20360;-55
2022/11/04 03:29:12;;;;;;;10.25;4.65;;;10.00;99.90;;;;;;5023192;28;20017;-52
2022/11/04 03:31:49;;;;;;;6.50;4.35;;;10.00;99.90;;;;;;5015048;28;20018;-59
2022/11/04 03:34:15;;;;;;;6.45;4.22;;;10.00;99.90;;;;;;5013186;28;20037;-55
2022/11/04 03:36:40;;;;;;;5.78;4.57;;;10.00;99.90;;;;;;5019744;28;20018;-59
2022/11/04 03:39:06;;;;;;;7.13;4.32;;;10.00;99.90;;;;;;5018898;28;20485;-54
2022/11/04 03:41:40;;;;;;;5.38;4.35;;;10.00;99.90;;;;;;5020552;28;20460;-55
2022/11/04 03:44:06;;;;;;;5.90;4.50;;;10.00;99.90;;;;;;5019123;28;20518;-54
2022/11/04 03:46:31;;;;;;;7.05;4.38;;;10.00;99.90;;;;;;5020108;28;20026;-54
2022/11/04 03:48:58;;;;;;;6.22;4.78;;;10.00;99.90;;;;;;5018456;28;20076;-58
2022/11/04 03:51:24;;;;;;;6.45;4.18;;;10.00;99.90;;;;;;5018276;28;20664;-57
2022/11/04 03:53:50;;;;;;;7.35;3.95;;;10.00;99.90;;;;;;5019684;28;20032;-53
2022/11/04 03:56:46;;;;;;;7.93;4.85;;;10.00;99.90;;;;;;5019900;28;20112;-57
2022/11/04 03:59:50;;;;;;;8.27;4.38;;;10.00;99.90;;;;;;5019542;28;20037;-55
2022/11/04 04:02:25;;;;;;;5.93;4.82;;;10.00;99.90;;;;;;5012823;28;20049;-57
2022/11/04 04:04:51;;;;;;;5.90;4.72;;;10.00;99.90;;;;;;5016327;28;20113;-57
2022/11/04 04:07:36;;;;;;;5.38;4.35;;;10.00;99.90;;;;;;5022806;28;20101;-57
2022/11/04 04:13:07;;;;;;;7.80;4.10;;;10.10;99.90;;;;;;5020466;28;20088;-55
2022/11/04 04:15:47;;;;;;;5.93;4.75;;;10.10;99.90;;;;;;5017442;28;20419;-57
2022/11/04 04:18:15;;;;;;;9.35;5.20;;;10.10;99.90;;;;;;5018750;28;20025;-56
2022/11/04 04:20:45;;;;;;;7.38;5.10;;;10.20;99.90;;;;;;5018587;28;20388;-54
2022/11/04 04:28:55;;;;;;;6.28;5.57;;;10.10;99.90;;;;;;5025487;28;20037;-53
2022/11/04 04:34:07;;;;;;;6.60;4.70;;;10.20;99.90;;;;;;5024720;28;20091;-55
2022/11/04 04:36:57;;;;;;;8.82;4.90;;;10.30;99.90;;;;;;5008633;28;20044;-54
2022/11/04 04:45:03;;;;;;;6.82;4.80;;;10.40;99.90;;;;;;5019669;28;20044;-53
2022/11/04 04:47:41;;;;;;;5.38;4.43;;;10.40;99.90;;;;;;5013732;28;20036;-55
2022/11/04 04:50:07;;;;;;;5.50;4.18;;;10.40;99.90;;;;;;5023252;28;20177;-57
2022/11/04 04:52:37;;;;;;;5.60;4.55;;;10.40;99.90;;;;;;5015794;28;20092;-54
2022/11/04 04:55:04;;;;;;;4.10;3.63;;;10.40;99.90;;;;;;5017588;28;20034;-54
2022/11/04 04:57:29;;;;;;;3.88;3.38;;;10.40;99.90;;;;;;5013293;28;20399;-54
2022/11/04 04:59:55;;;;;;;3.78;2.75;;;10.40;99.90;;;;;;5015494;28;20045;-55
2022/11/04 05:02:20;;;;;;;3.53;3.22;;;10.40;99.90;;;;;;5021473;28;20444;-54
2022/11/04 05:04:46;;;;;;;4.22;2.80;;;10.40;99.90;;;;;;5015398;28;20037;-54
2022/11/04 05:07:11;;;;;;;2.45;2.25;;;10.40;99.90;;;;;;5022118;28;20029;-55
2022/11/04 05:09:37;;;;;;;2.25;2.05;;;10.40;99.90;;;;;;5015322;28;20099;-59
2022/11/04 05:12:03;;;;;;;2.58;2.38;;;10.40;99.90;;;;;;5021002;28;20077;-53
2022/11/04 05:14:29;;;;;;;3.13;1.98;;;10.40;99.90;;;;;;5016227;28;20040;-55
2022/11/04 05:16:55;;;;;;;2.67;1.88;;;10.50;99.90;;;;;;5014371;28;20030;-54
2022/11/04 05:19:20;;;;;;;2.97;2.00;;;10.50;99.90;;;;;;5021300;28;20050;-54
2022/11/04 05:21:46;;;;;;;2.83;2.15;;;10.50;99.90;;;;;;5019883;28;20056;-52
2022/11/04 05:24:11;;;;;;;2.45;1.77;;;10.50;99.90;;;;;;5022329;28;20496;-57
2022/11/04 05:26:37;;;;;;;2.25;1.92;;;10.50;99.90;;;;;;5019673;28;20100;-56
2022/11/04 05:29:02;;;;;;;2.70;1.73;;;10.50;99.90;;;;;;5022123;28;20040;-53
2022/11/04 05:31:29;;;;;;;2.35;1.48;;;10.50;99.90;;;;;;5018735;28;20030;-54
2022/11/04 05:33:55;;;;;;;1.95;1.73;;;10.50;99.90;;;;;;5020171;28;20025;-54
2022/11/04 05:36:21;;;;;;;2.35;1.95;;;10.50;99.90;;;;;;5022741;28;20032;-55
2022/11/04 05:38:51;;;;;;;2.75;1.70;;;10.50;99.90;;;;;;5018890;28;20037;-55
2022/11/04 05:41:26;;;;;;;3.08;2.10;;;10.40;99.90;;;;;;5018094;28;20030;-53
2022/11/04 05:43:57;;;;;;;1.60;1.50;;;10.40;99.90;;;;;;5014717;28;20401;-59
2022/11/04 05:46:24;;;;;;;1.65;1.50;;;10.40;99.90;;;;;;5019766;28;20029;-56
2022/11/04 05:48:50;;;;;;;3.22;2.03;;;10.40;99.90;;;;;;5018785;28;20075;-57
2022/11/04 05:51:17;;;;;;;1.85;1.75;;;10.40;99.90;;;;;;5022683;28;20041;-57
2022/11/04 05:53:43;;;;;;;2.35;1.98;;;10.40;99.90;;;;;;5017473;28;20032;-56
2022/11/04 05:56:09;;;;;;;2.65;1.85;;;10.40;99.90;;;;;;5009625;28;20408;-56
2022/11/04 05:58:34;;;;;;;2.20;2.00;;;10.40;99.90;;;;;;5019794;28;20250;-57
2022/11/04 06:01:23;;;;;;;2.15;1.70;;;10.40;99.90;;;;;;5016231;28;20025;-54
2022/11/04 06:03:48;;;;;;;1.88;1.77;;;10.40;99.90;;;;;;5015768;28;20025;-59
2022/11/04 06:06:14;;;;;;;2.05;1.85;;;10.40;99.90;;;;;;5029674;28;20025;-56
2022/11/04 06:08:40;;;;;;;2.45;1.83;;;10.40;99.90;;;;;;5016594;28;20068;-54
2022/11/04 06:11:05;;;;;;;2.10;1.80;;;10.40;99.90;;;;;;5018463;28;20496;-56
2022/11/04 06:13:31;;;;;;;2.17;1.83;;;10.40;99.90;;;;;;5016282;28;20499;-58
2022/11/04 06:15:56;;;;;;;2.05;1.85;;;10.40;99.90;;;;;;5024142;28;20488;-57
2022/11/04 06:18:22;;;;;;;3.65;2.20;;;10.40;99.90;;;;;;5016755;28;20026;-56
2022/11/04 06:20:48;;;;;;;2.58;1.95;;;10.40;99.90;;;;;;5018337;28;20026;-54
2022/11/04 06:23:13;;;;;;;3.15;2.50;;;10.40;99.90;;;;;;5021695;28;20450;-57
2022/11/04 06:25:39;;;;;;;3.58;2.38;;;10.40;99.90;;;;;;5014901;28;20041;-57
2022/11/04 06:28:04;;;;;;;2.97;2.63;;;10.30;99.90;;;;;;5019583;28;20370;-53
2022/11/04 06:30:30;;;;;;;2.40;1.95;;;10.30;99.90;;;;;;5017629;28;20021;-55
2022/11/04 06:32:55;;;;;;;5.00;3.60;;;10.30;99.90;;;;;;5016691;28;20022;-59
2022/11/04 06:35:21;;;;;;;3.00;2.80;;;10.30;99.90;;;;;;5013316;28;20518;-53
2022/11/04 06:37:47;;;;;;;3.50;2.95;;;10.30;99.90;;;;;;5017625;28;20026;-53
2022/11/04 06:40:12;;;;;;;4.15;3.08;;;10.30;99.90;;;;;;5020784;28;20030;-57
2022/11/04 06:42:38;;;;;;;2.60;2.40;;;10.40;99.90;;;;;;5021446;28;20252;-57
2022/11/04 06:45:04;;;;;;;3.75;2.83;;;10.30;99.90;;;;;;5016863;28;20048;-55
2022/11/04 06:47:29;;;;;;;3.13;2.83;;;10.40;99.90;;;;;;5009576;28;20022;-58
2022/11/04 06:49:55;;;;;;;3.20;2.70;;;10.30;99.90;;;;;;5015771;28;20384;-56
2022/11/04 06:52:20;;;;;;;3.17;2.88;;;10.40;99.90;;;;;;5013641;28;20224;-53
2022/11/04 06:54:46;;;;;;;3.22;2.92;;;10.40;99.90;;;;;;5018305;28;20067;-59
2022/11/04 06:57:12;;;;;;;3.70;3.28;;;10.30;99.90;;;;;;5023375;28;20029;-56
2022/11/04 06:59:38;;;;;;;3.80;3.40;;;10.40;99.90;;;;;;5011169;28;20037;-55
2022/11/04 07:02:04;;;;;;;3.90;3.47;;;10.30;99.90;;;;;;5012490;28;20040;-53
2022/11/04 07:04:29;;;;;;;3.53;3.10;;;10.40;99.90;;;;;;5016670;28;20033;-54
2022/11/04 07:06:55;;;;;;;2.78;2.58;;;10.40;99.90;;;;;;5018501;28;20369;-56
2022/11/04 07:09:20;;;;;;;3.72;3.42;;;10.40;99.90;;;;;;5016169;28;20021;-57
2022/11/04 07:11:46;;;;;;;4.07;3.03;;;10.30;99.90;;;;;;5025486;28;20445;-56
2022/11/04 07:14:12;;;;;;;3.33;2.95;;;10.40;99.90;;;;;;5013625;28;20431;-53
2022/11/04 07:16:38;;;;;;;3.10;2.80;;;10.30;99.90;;;;;;5018387;28;20032;-53
2022/11/04 07:19:05;;;;;;;4.60;3.25;;;10.40;99.90;;;;;;5017965;28;20056;-58
2022/11/04 07:21:30;;;;;;;3.47;2.92;;;10.40;99.90;;;;;;5017903;28;20361;-55
2022/11/04 07:23:56;;;;;;;4.75;3.13;;;10.40;99.90;;;;;;5019828;28;20037;-54
2022/11/04 07:26:21;;;;;;;4.90;3.67;;;10.40;99.90;;;;;;5021098;28;20061;-54
2022/11/04 07:28:47;;;;;;;3.42;3.05;;;10.40;99.90;;;;;;5025947;28;20104;-58
2022/11/04 07:31:14;;;;;;;3.30;3.00;;;10.40;99.90;;;;;;5017260;28;20483;-53
2022/11/04 07:33:39;;;;;;;4.47;3.83;;;10.40;99.90;;;;;;5018206;28;20393;-57
2022/11/04 07:36:07;;;;;;;5.80;3.58;;;10.40;99.90;;;;;;5033812;28;20048;-57
2022/11/04 07:38:33;;;;;;;4.03;3.63;;;10.40;99.90;;;;;;5012473;28;20076;-53
2022/11/04 07:40:59;;;;;;;4.40;3.55;;;10.40;99.90;;;;;;5018614;28;20021;-53
2022/11/04 07:43:25;;;;;;;4.43;3.33;;;10.30;99.90;;;;;;5017522;28;20034;-52
2022/11/04 07:46:11;;;;;;;4.32;3.53;;;10.40;99.90;;;;;;5007703;28;20047;-53
2022/11/04 07:48:37;;;;;;;4.00;3.60;;;10.30;99.90;;;;;;5019683;28;20101;-55
2022/11/04 07:51:05;;;;;;;5.38;3.97;;;10.30;99.90;;;;;;5019949;28;20022;-53
2022/11/04 07:53:31;;;;;;;4.22;3.80;;;10.30;99.90;;;;;;5018753;28;20029;-56
2022/11/04 07:55:57;;;;;;;4.97;4.47;;;10.30;99.90;;;;;;5018723;28;20456;-56
2022/11/04 07:58:24;;;;;;;4.97;3.78;;;10.30;99.90;;;;;;5021953;28;20128;-53
2022/11/04 08:00:50;;;;;;;3.80;3.50;;;10.30;99.90;;;;;;5014185;28;20473;-57
2022/11/04 08:03:16;;;;;;;4.40;3.97;;;10.30;99.90;;;;;;5021140;28;20036;-57
2022/11/04 08:05:41;;;;;;;4.75;4.22;;;10.30;99.90;;;;;;5016290;28;20026;-56
2022/11/04 08:08:07;;;;;;;5.13;4.10;;;10.40;99.90;;;;;;5018490;28;20057;-56
2022/11/04 08:10:33;;;;;;;4.90;3.78;;;10.40;99.90;;;;;;5020729;28;20487;-58
2022/11/04 08:12:59;;;;;;;5.63;4.13;;;10.40;99.90;;;;;;5018476;28;20018;-57
2022/11/04 08:15:24;;;;;;;5.25;4.38;;;10.40;99.90;;;;;;5020176;28;20108;-59
2022/11/04 08:17:50;;;;;;;4.55;3.95;;;10.40;99.90;;;;;;5017337;28;20028;-53
2022/11/04 08:20:16;;;;;;;5.18;4.68;;;10.40;99.90;;;;;;5019762;28;20400;-54
2022/11/04 08:22:42;;;;;;;6.00;3.97;;;10.40;99.90;;;;;;5014230;28;20412;-58
2022/11/04 08:25:10;;;;;;;5.15;4.25;;;10.50;99.90;;;;;;5019153;28;20036;-59
2022/11/04 08:27:35;;;;;;;7.40;5.10;;;10.50;99.90;;;;;;5014755;28;20108;-60
2022/11/04 08:30:01;;;;;;;5.80;4.30;;;10.50;99.90;;;;;;5018681;28;20105;-58
2022/11/04 08:32:27;;;;;;;5.22;4.72;;;10.50;99.90;;;;;;5015578;28;21192;-57
2022/11/04 08:34:53;;;;;;;5.80;5.00;;;10.50;99.90;;;;;;5015085;28;20029;-56
2022/11/04 08:37:18;;;;;;;8.70;4.80;;;10.50;99.90;;;;;;5020362;28;20120;-57
2022/11/04 08:39:44;;;;;;;5.28;4.78;;;10.50;99.90;;;;;;5011687;28;20759;-58
2022/11/04 08:42:09;;;;;;;6.80;4.95;;;10.50;99.90;;;;;;5017300;28;20492;-58
2022/11/04 08:44:35;;;;;;;4.50;4.10;;;10.50;99.90;;;;;;5009080;28;20105;-58
2022/11/04 08:47:02;;;;;;;4.85;4.18;;;10.50;99.90;;;;;;5014669;28;20025;-57
2022/11/04 08:49:28;;;;;;;5.35;4.85;;;10.50;99.90;;;;;;5011788;28;20026;-55
2022/11/04 08:51:58;;;;;;;7.03;4.82;;;10.50;99.90;;;;;;5009471;28;20048;-60
2022/11/04 08:54:25;;;;;;;4.88;4.15;;;10.50;99.90;;;;;;5013228;28;20014;-57
2022/11/04 08:56:50;;;;;;;4.60;4.20;;;10.50;99.90;;;;;;5010526;28;20022;-57
2022/11/04 08:59:16;;;;;;;4.78;4.25;;;10.60;99.90;;;;;;5042649;22;20570;-53
2022/11/04 09:01:42;;;;;;;5.63;4.18;;;10.60;99.90;;;;;;5021359;28;20056;-53
2022/11/04 09:04:11;;;;;;;4.30;3.80;;;10.60;99.90;;;;;;5017218;28;20026;-54
2022/11/04 09:06:39;;;;;;;5.82;4.32;;;10.60;99.90;;;;;;5022301;28;20112;-52
2022/11/04 09:09:08;;;;;;;5.50;4.22;;;10.60;99.90;;;;;;5016710;28;20018;-53
2022/11/04 09:11:38;;;;;;;5.10;4.60;;;10.70;99.90;;;;;;5003906;28;20022;-53
2022/11/04 09:14:05;;;;;;;6.43;5.15;;;10.70;99.90;;;;;;5008304;28;20030;-54
2022/11/04 09:16:32;;;;;;;5.25;4.75;;;10.70;99.90;;;;;;5001841;28;20026;-56
2022/11/04 09:18:58;;;;;;;5.63;4.78;;;10.70;99.90;;;;;;5008087;28;20543;-51
2022/11/04 09:21:25;;;;;;;5.38;4.82;;;10.80;99.90;;;;;;5004301;28;20031;-52
2022/11/04 09:23:50;;;;;;;6.75;4.97;;;10.80;99.90;;;;;;5007787;28;20033;-50
2022/11/04 09:26:16;;;;;;;6.80;4.60;;;10.80;99.90;;;;;;5006618;28;20025;-50
2022/11/04 09:28:42;;;;;;;7.30;4.72;;;10.80;99.90;;;;;;5007256;28;20030;-48
2022/11/04 09:31:15;;;;;;;5.25;4.50;;;10.90;99.90;;;;;;5009218;28;20040;-52
2022/11/04 09:33:41;;;;;;;6.28;4.57;;;10.90;99.90;;;;;;4996587;28;20022;-49
2022/11/04 09:36:08;;;;;;;5.57;4.60;;;11.00;99.90;;;;;;5008879;28;20481;-55
2022/11/04 09:38:36;;;;;;;4.82;4.32;;;11.00;99.90;;;;;;5000862;28;20026;-50
2022/11/04 09:41:20;;;;;;;4.57;4.15;;;11.00;99.90;;;;;;5008211;28;20381;-54
2022/11/04 09:44:00;;;;;;;4.93;4.53;;;11.00;99.90;;;;;;5002439;28;20027;-55
2022/11/04 09:46:29;;;;;;;6.40;4.32;;;11.00;99.90;;;;;;5005266;28;20022;-53
2022/11/04 09:48:56;;;;;;;4.97;4.38;;;11.00;99.90;;;;;;5000751;28;20308;-50
2022/11/04 09:51:25;;;;;;;4.47;3.70;;;11.00;99.90;;;;;;4993551;28;20388;-51
2022/11/04 09:53:59;;;;;;;4.25;3.65;;;11.00;99.90;;;;;;5004637;28;20021;-53
2022/11/04 09:56:31;;;;;;;4.78;3.40;;;11.00;99.90;;;;;;5004774;28;20038;-52
2022/11/04 09:58:57;;;;;;;4.65;4.18;;;11.00;99.90;;;;;;5002074;28;20097;-53
2022/11/04 10:01:46;;;;;;;3.35;3.03;;;11.10;99.90;;;;;;5002182;28;20117;-54
2022/11/04 10:04:37;;;;;;;3.88;3.22;;;11.10;99.90;;;;;;5002138;28;20249;-53
2022/11/04 10:07:34;;;;;;;4.82;3.35;;;11.20;99.90;;;;;;5008791;28;20030;-54
2022/11/04 10:10:22;;;;;;;3.22;2.70;;;11.30;99.90;;;;;;5000006;28;20045;-51
2022/11/04 10:13:00;;;;;;;3.00;2.13;;;11.40;99.90;;;;;;5007928;28;20025;-49
2022/11/04 10:16:01;;;;;;;2.95;2.60;;;11.40;99.90;;;;;;4991956;28;20052;-55
2022/11/04 10:18:52;;;;;;;5.28;2.40;;;11.50;99.90;;;;;;4989437;28;20396;-52
2022/11/04 10:21:45;;;;;;;3.13;1.90;;;11.50;99.90;;;;;;5000337;28;20030;-54
2022/11/04 10:24:32;;;;;;;2.28;1.70;;;11.50;99.90;;;;;;4999824;28;20432;-54
2022/11/04 10:27:04;;;;;;;1.70;1.60;;;11.50;99.90;;;;;;5000654;28;20042;-51
2022/11/04 10:29:42;;;;;;;1.83;1.48;;;11.50;99.90;;;;;;5009024;28;20496;-52
2022/11/04 10:32:21;;;;;;;2.60;1.50;;;11.40;99.90;;;;;;5004743;28;20038;-53
2022/11/04 10:34:53;;;;;;;2.97;1.52;;;11.50;99.90;;;;;;4999010;28;20026;-52
2022/11/04 10:37:19;;;;;;;2.70;1.60;;;11.50;99.90;;;;;;4991743;28;20021;-56
2022/11/04 10:39:46;;;;;;;1.65;1.17;;;11.50;99.90;;;;;;5001085;28;20026;-56
2022/11/04 10:42:23;;;;;;;1.75;1.10;;;11.50;99.90;;;;;;5007090;28;20018;-54
2022/11/04 10:44:51;;;;;;;1.90;1.20;;;11.50;99.90;;;;;;5000627;28;20216;-55
2022/11/04 10:47:41;;;;;;;1.10;0.70;;;11.60;99.90;;;;;;5008439;28;20053;-52
2022/11/04 10:50:25;;;;;;;5.72;0.93;;;11.70;99.90;;;;;;5002892;28;20037;-51
2022/11/04 10:52:53;;;;;;;0.57;0.57;;;11.70;99.90;;;;;;4997604;28;20026;-49
2022/11/04 10:55:43;;;;;;;1.30;0.80;;;11.80;99.90;;;;;;4996042;28;20048;-54
2022/11/04 10:58:20;;;;;;;1.10;0.55;;;11.80;99.90;;;;;;5002799;28;20033;-54
2022/11/04 11:00:46;;;;;;;1.92;0.50;;;11.90;99.90;;;;;;4991156;28;20497;-54
2022/11/04 11:03:31;;;;;;;1.88;0.50;;;11.80;99.90;;;;;;5000958;28;20044;-53
2022/11/04 11:06:26;;;;;;;1.13;0.70;;;11.80;99.90;;;;;;5001655;28;20159;-52
2022/11/04 11:08:55;;;;;;;0.85;0.63;;;11.90;99.90;;;;;;5000635;28;20030;-52
2022/11/04 11:11:37;;;;;;;2.35;0.77;;;12.00;99.90;;;;;;5003500;28;20140;-55
2022/11/04 11:14:03;;;;;;;0.63;0.63;;;12.00;99.90;;;;;;5005222;28;20388;-54
2022/11/04 11:16:30;;;;;;;3.40;0.77;;;12.10;99.90;;;;;;4999120;28;20030;-55
2022/11/04 11:19:13;;;;;;;1.67;0.68;;;12.10;99.90;;;;;;5006152;28;20487;-57
2022/11/04 11:21:50;;;;;;;1.17;0.55;;;12.20;99.90;;;;;;5000270;28;20010;-53
2022/11/04 11:24:29;;;;;;;1.73;1.13;;;12.20;99.90;;;;;;5002900;28;20369;-53
2022/11/04 11:26:58;;;;;;;1.52;0.40;;;12.30;99.90;;;;;;4999703;28;20026;-54
2022/11/04 11:29:28;;;;;;;0.82;0.52;;;12.30;99.90;;;;;;5009475;28;20018;-52
2022/11/04 11:31:55;;;;;;;3.08;0.80;;;12.40;99.90;;;;;;4998953;28;20026;-49
2022/11/04 11:34:25;;;;;;;3.05;0.50;;;12.40;99.90;;;;;;5002309;28;20095;-55
2022/11/04 11:36:53;;;;;;;3.95;0.60;;;12.40;99.90;;;;;;5000315;28;20029;-52
2022/11/04 11:39:21;;;;;;;1.10;0.80;;;12.40;99.90;;;;;;5003316;28;20485;-56
2022/11/04 11:41:52;;;;;;;2.03;0.40;;;12.50;99.90;;;;;;4998885;28;20072;-53
2022/11/04 11:44:37;;;;;;;1.77;0.85;;;12.40;99.90;;;;;;4988858;28;20421;-58
2022/11/04 11:47:20;;;;;;;3.65;0.68;;;12.40;99.90;;;;;;5001711;28;20054;-54
2022/11/04 11:50:02;;;;;;;2.22;0.57;;;12.40;99.90;;;;;;5004820;28;20028;-53
2022/11/04 11:52:33;;;;;;;0.88;0.60;;;12.40;99.90;;;;;;4994468;28;20398;-54
2022/11/04 11:55:22;;;;;;;2.38;0.52;;;12.40;99.90;;;;;;5005305;28;20520;-53
2022/11/04 11:58:27;;;;;;;0.98;0.50;;;12.40;99.90;;;;;;4993631;28;20026;-52
2022/11/04 12:01:20;;;;;;;2.20;0.80;;;12.40;99.90;;;;;;4989741;28;20038;-54
2022/11/04 12:03:48;;;;;;;1.25;0.40;;;12.40;99.90;;;;;;5005250;28;20034;-54
2022/11/04 12:06:32;;;;;;;2.28;0.50;;;12.50;99.90;;;;;;4995879;28;20117;-55
2022/11/04 12:09:06;;;;;;;4.07;0.95;;;12.50;99.90;;;;;;5004915;28;20029;-55
2022/11/04 12:11:51;;;;;;;3.00;0.68;;;12.50;99.90;;;;;;4991853;28;20018;-54
2022/11/04 12:14:41;;;;;;;2.65;0.75;;;12.50;99.90;;;;;;4985134;28;20049;-52
2022/11/04 12:17:37;;;;;;;3.88;0.88;;;12.50;99.90;;;;;;5000717;28;20038;-54
2022/11/04 12:20:20;;;;;;;2.47;0.80;;;12.60;99.90;;;;;;5002217;28;20097;-53
2022/11/04 12:22:59;;;;;;;2.90;0.68;;;12.60;99.90;;;;;;5001446;28;20022;-56
2022/11/04 12:25:38;;;;;;;1.88;0.95;;;12.60;99.90;;;;;;4992567;28;20504;-53
2022/11/04 12:28:29;;;;;;;3.70;0.88;;;12.70;99.90;;;;;;5000882;28;20490;-53
2022/11/04 12:31:22;;;;;;;7.95;1.20;;;12.70;99.90;;;;;;5003685;28;20041;-56
2022/11/04 12:34:16;;;;;;;2.70;1.05;;;12.70;99.90;;;;;;4994388;28;20023;-50
2022/11/04 12:37:11;;;;;;;3.30;1.40;;;12.60;99.90;;;;;;4998355;28;20026;-51
2022/11/04 12:39:43;;;;;;;5.13;1.05;;;12.70;99.90;;;;;;4991424;28;20041;-53
2022/11/04 12:42:48;;;;;;;3.95;0.93;;;12.70;99.90;;;;;;5004120;28;20065;-55
2022/11/04 12:45:35;;;;;;;1.80;0.28;;;12.60;99.90;;;;;;4997974;28;20026;-52
2022/11/04 12:48:14;;;;;;;3.35;1.20;;;12.60;99.90;;;;;;5001554;28;20425;-55
2022/11/04 12:51:28;;;;;;;2.35;0.68;;;12.60;99.90;;;;;;4997632;28;20023;-54
2022/11/04 12:54:03;;;;;;;3.78;0.70;;;12.50;99.90;;;;;;4975626;28;20057;-54
2022/11/04 12:56:39;;;;;;;7.55;0.90;;;12.50;99.90;;;;;;5006404;28;20041;-56
2022/11/04 12:59:35;;;;;;;4.20;1.23;;;12.50;99.90;;;;;;4993775;28;20514;-51
2022/11/04 13:02:13;;;;;;;1.60;0.70;;;12.50;99.90;;;;;;5006832;28;20033;-53
2022/11/04 13:04:47;;;;;;;3.67;1.45;;;12.50;99.90;;;;;;4998780;28;20034;-55
2022/11/04 13:07:21;;;;;;;2.67;1.10;;;12.50;99.90;;;;;;5004708;28;20132;-54
2022/11/04 13:10:01;;;;;;;2.80;0.75;;;12.40;99.90;;;;;;4993888;28;20413;-53
2022/11/04 13:12:31;;;;;;;3.63;1.20;;;12.40;99.90;;;;;;5006095;28;20029;-52
2022/11/04 13:15:21;;;;;;;4.88;1.00;;;12.30;99.90;;;;;;5003032;28;20026;-55
2022/11/04 13:17:51;;;;;;;3.47;1.17;;;12.40;99.90;;;;;;5002989;28;20033;-53
2022/11/04 13:20:43;;;;;;;4.13;1.08;;;12.40;99.90;;;;;;4998614;28;20499;-56
2022/11/04 13:23:30;;;;;;;1.75;0.80;;;12.40;99.90;;;;;;5004449;28;20614;-54
2022/11/04 13:25:57;;;;;;;4.00;0.93;;;12.40;99.90;;;;;;5008517;28;20329;-55
2022/11/04 13:28:24;;;;;;;2.35;0.85;;;12.50;99.90;;;;;;5005626;28;20469;-54
2022/11/04 13:31:14;;;;;;;2.45;0.90;;;12.50;99.90;;;;;;5009054;28;20026;-55
2022/11/04 13:34:05;;;;;;;4.03;0.90;;;12.40;99.90;;;;;;4975495;28;20068;-53
2022/11/04 13:36:40;;;;;;;3.95;1.00;;;12.40;99.90;;;;;;5004305;28;20586;-54
2022/11/04 13:39:23;;;;;;;1.95;0.80;;;12.40;99.90;;;;;;5002633;28;20026;-52
2022/11/04 13:42:34;;;;;;;1.65;0.77;;;12.40;99.90;;;;;;5006763;28;20019;-53
2022/11/04 13:45:12;;;;;;;2.38;1.10;;;12.40;99.90;;;;;;5005468;28;20032;-53
2022/11/04 13:47:54;;;;;;;2.72;0.73;;;12.40;99.90;;;;;;5001775;28;20021;-55
2022/11/04 13:50:28;;;;;;;4.72;1.00;;;12.30;99.90;;;;;;5003187;28;20027;-54
2022/11/04 13:52:54;;;;;;;3.13;0.90;;;12.30;99.90;;;;;;5000501;28;20391;-54